Veale, Indiana
Current Conditions -  °F | °C
As of 6:35 AM on Tuesday 27 Jan 2015 (Local Time) from KDCY Reporting Station
Haze Haze  
Wind Chill: 30°   Ceiling: 300
Heat Index: 30°   Visibility: 2.5mi
Dew Point: 26°   Wind: 3mph
Humidity: 88%   Direction: 30°NNE
Pressure: 30"   Gusts: NA
Location:  38.6427°N, 87.1768°W
Report Text: KDCY 271235Z AUTO 03003KT 2 1/2SM BR OVC003 M01/M03 A3000 RMK AO2 T10131031
Loading
Personal Weather Stations






























Interactive Weather Map New forecast layout! Learn more

10-Day Weather Forecast

Advertisements
Track Severe Weather on mobile